createdAt,value
2023-05-12T00:03:54.123Z,14.20
2023-05-12T00:06:23.278Z,14.20
2023-05-12T00:08:54.991Z,14.20
2023-05-12T00:11:24.341Z,14.10
2023-05-12T00:13:54.378Z,14.20
2023-05-12T00:16:39.967Z,13.80
2023-05-12T00:19:09.938Z,14.10
2023-05-12T00:21:41.645Z,14.70
2023-05-12T00:24:16.246Z,14.10
2023-05-12T00:26:46.668Z,14.10
2023-05-12T00:29:17.993Z,14.20
2023-05-12T00:31:53.483Z,14.10
2023-05-12T00:34:24.182Z,14.00
2023-05-12T00:36:53.594Z,14.00
2023-05-12T00:39:24.780Z,14.10
2023-05-12T00:42:02.024Z,13.90
2023-05-12T00:44:32.249Z,13.90
2023-05-12T00:47:08.075Z,13.90
2023-05-12T00:49:44.005Z,13.90
2023-05-12T00:52:14.261Z,13.10
2023-05-12T00:54:47.407Z,13.80
2023-05-12T00:57:17.410Z,13.80
2023-05-12T00:59:47.785Z,13.80
2023-05-12T01:02:23.671Z,13.60
2023-05-12T01:04:53.907Z,13.90
2023-05-12T01:07:25.548Z,13.80
2023-05-12T01:10:02.169Z,13.90
2023-05-12T01:12:32.598Z,15.20
2023-05-12T01:15:07.372Z,14.00
2023-05-12T01:18:18.320Z,13.20
2023-05-12T01:21:06.047Z,14.10
2023-05-12T01:23:40.365Z,13.90
2023-05-12T01:26:12.245Z,14.90
2023-05-12T01:28:55.771Z,14.70
2023-05-12T01:31:25.760Z,15.20
2023-05-12T01:33:54.598Z,14.00
2023-05-12T01:36:52.683Z,14.00
2023-05-12T01:39:23.468Z,14.30
2023-05-12T01:41:54.028Z,14.30
2023-05-12T01:44:24.913Z,14.10
2023-05-12T01:46:54.366Z,14.60
2023-05-12T01:49:23.515Z,14.00
2023-05-12T01:51:52.601Z,14.20
2023-05-12T01:54:21.379Z,14.40
2023-05-12T01:56:49.963Z,15.30
2023-05-12T01:59:20.705Z,14.70
2023-05-12T02:01:49.638Z,16.00
2023-05-12T02:04:19.000Z,14.50
2023-05-12T02:06:48.596Z,14.20
2023-05-12T02:09:17.755Z,15.10
2023-05-12T02:11:46.768Z,14.30
2023-05-12T02:14:15.640Z,15.10
2023-05-12T02:16:45.854Z,14.20
2023-05-12T02:19:14.607Z,13.50
2023-05-12T02:21:46.882Z,13.40
2023-05-12T02:24:17.198Z,14.30
2023-05-12T02:26:46.152Z,14.30
2023-05-12T02:29:14.973Z,14.30
2023-05-12T02:31:45.333Z,14.30
2023-05-12T02:34:14.730Z,14.40
2023-05-12T02:36:43.476Z,14.10
2023-05-12T02:39:12.756Z,14.60
2023-05-12T02:41:46.010Z,14.30
2023-05-12T02:44:17.318Z,13.90
2023-05-12T02:46:47.724Z,14.10
2023-05-12T02:49:16.572Z,14.00
2023-05-12T02:51:46.528Z,14.10
2023-05-12T02:54:15.507Z,14.60
2023-05-12T02:56:44.474Z,13.50
2023-05-12T02:59:13.435Z,14.00
2023-05-12T03:01:42.426Z,14.10
2023-05-12T03:04:20.321Z,14.50
2023-05-12T03:06:49.726Z,13.90
2023-05-12T03:09:22.120Z,14.30
2023-05-12T03:11:51.335Z,13.40
2023-05-12T03:14:20.342Z,14.30
2023-05-12T03:16:51.118Z,14.00
2023-05-12T03:19:24.053Z,14.70
2023-05-12T03:21:54.206Z,13.80
2023-05-12T03:24:22.846Z,13.80
2023-05-12T03:26:53.361Z,14.10
2023-05-12T03:29:22.589Z,13.20
2023-05-12T03:31:51.995Z,14.00
2023-05-12T03:34:22.681Z,13.80
2023-05-12T03:36:54.655Z,13.90
2023-05-12T03:39:25.064Z,13.80
2023-05-12T03:41:55.892Z,13.50
2023-05-12T03:44:26.924Z,13.90
2023-05-12T03:46:56.229Z,13.80
2023-05-12T03:49:28.263Z,14.30
2023-05-12T03:51:56.961Z,13.80
2023-05-12T03:54:25.989Z,14.10
2023-05-12T03:56:55.312Z,14.00
2023-05-12T03:59:24.115Z,14.30
2023-05-12T04:01:55.569Z,13.50
2023-05-12T04:04:25.934Z,13.20
2023-05-12T04:06:54.839Z,14.00
2023-05-12T04:09:23.958Z,14.30
2023-05-12T04:11:54.549Z,13.70
2023-05-12T04:14:31.886Z,13.30
2023-05-12T04:17:04.626Z,14.00
2023-05-12T04:19:35.520Z,14.10
2023-05-12T04:22:04.321Z,14.20
2023-05-12T04:24:33.983Z,13.50
2023-05-12T04:27:09.107Z,13.80
2023-05-12T04:29:39.747Z,13.50
2023-05-12T04:32:09.833Z,13.10
2023-05-12T04:34:40.423Z,13.80
2023-05-12T04:37:09.138Z,14.20
2023-05-12T04:39:38.125Z,13.90
2023-05-12T04:42:10.559Z,13.70
2023-05-12T04:44:39.964Z,13.20
2023-05-12T04:47:09.073Z,13.50
2023-05-12T04:49:40.824Z,14.10
2023-05-12T04:52:09.920Z,13.50
2023-05-12T04:54:40.764Z,13.10
2023-05-12T04:57:10.579Z,13.60
2023-05-12T04:59:41.281Z,13.00
2023-05-12T05:02:12.618Z,13.50
2023-05-12T05:04:43.650Z,12.80
2023-05-12T05:07:12.803Z,13.50
2023-05-12T05:09:42.798Z,13.50
2023-05-12T05:12:47.538Z,13.60
2023-05-12T05:15:37.711Z,14.20
2023-05-12T05:21:20.522Z,15.20
2023-05-12T05:23:50.670Z,13.70
2023-05-12T05:26:22.229Z,13.90
2023-05-12T05:28:55.575Z,13.70
2023-05-12T05:31:26.051Z,13.50
2023-05-12T05:33:55.451Z,14.10
2023-05-12T05:36:26.600Z,13.90
2023-05-12T05:38:55.712Z,13.60
2023-05-12T05:41:24.967Z,13.80
2023-05-12T05:43:55.478Z,13.80
2023-05-12T05:46:24.407Z,13.60
2023-05-12T05:48:54.553Z,13.80
2023-05-12T05:51:29.576Z,13.70
2023-05-12T05:53:58.871Z,13.70
2023-05-12T05:56:27.625Z,14.20
2023-05-12T05:59:03.190Z,13.80
2023-05-12T06:01:33.089Z,14.20
2023-05-12T06:04:04.870Z,14.40
2023-05-12T06:06:36.436Z,14.10
2023-05-12T06:09:05.706Z,14.40
2023-05-12T06:11:35.672Z,14.30
2023-05-12T06:14:06.423Z,14.10
2023-05-12T06:16:35.434Z,14.20
2023-05-12T06:19:05.191Z,14.40
2023-05-12T06:21:38.239Z,14.40
2023-05-12T06:24:08.983Z,14.60
2023-05-12T06:26:39.599Z,14.90
2023-05-12T06:29:10.954Z,15.40
2023-05-12T06:31:42.382Z,15.90
2023-05-12T06:34:13.598Z,16.10
2023-05-12T06:36:45.024Z,16.50
2023-05-12T06:39:22.048Z,16.90
2023-05-12T06:41:55.219Z,17.00
2023-05-12T06:44:29.884Z,17.40
2023-05-12T06:47:00.604Z,19.00
2023-05-12T06:49:31.368Z,18.30
2023-05-12T06:52:02.796Z,19.10
2023-05-12T06:54:32.160Z,18.80
2023-05-12T06:57:05.718Z,18.40
2023-05-12T06:59:34.824Z,17.50
2023-05-12T07:02:06.270Z,16.70
2023-05-12T07:04:39.358Z,16.00
2023-05-12T07:07:16.168Z,16.00
2023-05-12T07:09:49.456Z,15.50
2023-05-12T07:12:24.842Z,15.40
2023-05-12T07:14:54.459Z,15.00
2023-05-12T07:17:24.035Z,15.40
2023-05-12T07:19:54.357Z,15.50
2023-05-12T07:22:33.923Z,15.50
2023-05-12T07:25:05.030Z,15.30
2023-05-12T07:27:37.952Z,15.50
2023-05-12T07:30:08.879Z,15.50
2023-05-12T07:32:41.829Z,15.10
2023-05-12T07:35:13.206Z,15.10
2023-05-12T07:37:46.440Z,15.20
2023-05-12T07:40:15.727Z,15.10
2023-05-12T07:42:46.375Z,15.00
2023-05-12T07:45:23.090Z,15.00
2023-05-12T07:47:53.184Z,15.00
2023-05-12T07:50:35.125Z,15.10
2023-05-12T07:53:09.778Z,14.90
2023-05-12T07:55:40.008Z,15.20
2023-05-12T07:58:27.551Z,16.00
2023-05-12T08:01:12.760Z,15.20
2023-05-12T08:03:42.677Z,15.30
2023-05-12T08:06:18.765Z,14.80
2023-05-12T08:08:51.695Z,14.80
2023-05-12T08:11:22.539Z,14.10
2023-05-12T08:13:58.365Z,14.90
2023-05-12T08:16:32.142Z,15.00
2023-05-12T08:19:04.387Z,14.90
2023-05-12T08:21:44.671Z,15.00
2023-05-12T08:27:13.520Z,16.00
2023-05-12T08:30:04.009Z,14.40
2023-05-12T08:32:34.047Z,15.50
2023-05-12T08:35:15.805Z,13.90
2023-05-12T08:37:51.843Z,14.80
2023-05-12T08:40:45.912Z,15.30
2023-05-12T08:43:39.704Z,14.90
2023-05-12T08:49:16.505Z,16.80
2023-05-12T08:52:16.549Z,15.40
2023-05-12T08:54:55.883Z,15.90
2023-05-12T08:57:50.188Z,15.40
2023-05-12T09:00:28.950Z,15.70
2023-05-12T09:03:06.054Z,15.70
2023-05-12T09:05:40.712Z,16.40
2023-05-12T09:08:29.693Z,15.80
2023-05-12T09:11:02.909Z,16.10
2023-05-12T09:14:40.321Z,16.00
2023-05-12T09:17:19.674Z,16.00
2023-05-12T09:19:56.970Z,16.30
2023-05-12T09:22:52.362Z,16.20
2023-05-12T09:29:18.278Z,16.50
2023-05-12T09:32:00.150Z,16.20
2023-05-12T09:34:33.435Z,16.40
2023-05-12T09:37:20.058Z,16.90
2023-05-12T09:39:51.201Z,16.40
2023-05-12T09:45:27.081Z,16.50
2023-05-12T09:47:58.265Z,16.60
2023-05-12T09:50:46.422Z,16.80
2023-05-12T09:53:17.989Z,16.80
2023-05-12T09:55:52.859Z,16.80
2023-05-12T09:58:30.963Z,17.00
2023-05-12T10:01:21.773Z,16.90
2023-05-12T10:03:55.058Z,17.90
2023-05-12T10:06:34.206Z,17.30
2023-05-12T10:09:25.234Z,17.20
2023-05-12T10:11:57.426Z,17.20
2023-05-12T10:17:43.946Z,17.00
2023-05-12T10:23:09.201Z,17.50
2023-05-12T10:25:49.036Z,17.00
2023-05-12T10:28:22.866Z,17.80
2023-05-12T10:30:58.512Z,17.70
2023-05-12T10:33:28.482Z,17.70
2023-05-12T10:39:40.451Z,17.70
2023-05-12T10:42:48.655Z,16.10
2023-05-12T10:45:30.569Z,18.10
2023-05-12T10:48:49.282Z,17.60
2023-05-12T10:51:32.002Z,17.20
2023-05-12T10:54:20.697Z,18.00
2023-05-12T10:57:05.571Z,18.00
2023-05-12T10:59:42.433Z,19.00
2023-05-12T11:02:22.048Z,18.30
2023-05-12T11:04:57.959Z,18.30
2023-05-12T11:07:33.570Z,18.60
2023-05-12T11:10:31.383Z,19.20
2023-05-12T11:16:03.862Z,19.20
2023-05-12T11:18:43.191Z,19.50
2023-05-12T11:21:29.632Z,19.60
2023-05-12T11:24:03.201Z,19.30
2023-05-12T11:26:32.766Z,18.90
2023-05-12T11:29:05.868Z,19.60
2023-05-12T11:31:35.599Z,19.00
2023-05-12T11:34:11.953Z,18.90
2023-05-12T11:36:44.864Z,19.00
2023-05-12T11:39:24.638Z,19.30
2023-05-12T11:42:05.525Z,19.40
2023-05-12T11:44:51.453Z,19.50
2023-05-12T11:47:23.086Z,19.50
2023-05-12T11:49:53.610Z,19.50
2023-05-12T11:52:27.447Z,19.50
2023-05-12T11:55:02.184Z,19.50
2023-05-12T11:57:33.580Z,19.60
2023-05-12T12:00:34.014Z,19.50
2023-05-12T12:03:14.502Z,18.50
2023-05-12T12:05:45.919Z,19.80
2023-05-12T12:08:17.474Z,19.70
2023-05-12T12:10:46.849Z,19.60
2023-05-12T12:13:26.417Z,19.70
2023-05-12T12:15:55.902Z,19.20
2023-05-12T12:18:26.621Z,19.40
2023-05-12T12:21:08.019Z,19.70
2023-05-12T12:23:50.465Z,19.20
2023-05-12T12:26:24.456Z,19.80
2023-05-12T12:28:54.323Z,19.80
2023-05-12T12:31:25.944Z,19.50
2023-05-12T12:33:57.968Z,19.80
2023-05-12T12:36:30.758Z,19.90
2023-05-12T12:39:00.624Z,20.30
2023-05-12T12:41:29.877Z,19.80
2023-05-12T12:43:58.764Z,19.80
2023-05-12T12:46:29.414Z,19.70
2023-05-12T12:49:02.344Z,19.80
2023-05-12T12:51:44.553Z,19.80
2023-05-12T12:54:15.425Z,19.70
2023-05-12T12:56:48.177Z,19.80
2023-05-12T12:59:17.574Z,19.90
2023-05-12T13:01:47.128Z,19.80
2023-05-12T13:04:20.311Z,19.80
2023-05-12T13:06:49.454Z,20.30
2023-05-12T13:09:20.078Z,19.50
2023-05-12T13:11:50.848Z,19.80
2023-05-12T13:14:20.088Z,19.90
2023-05-12T13:16:51.224Z,19.90
2023-05-12T13:19:22.125Z,20.10
2023-05-12T13:21:51.514Z,20.30
2023-05-12T13:24:20.606Z,20.30
2023-05-12T13:26:52.225Z,20.30
2023-05-12T13:29:21.186Z,20.40
2023-05-12T13:31:51.782Z,20.20
2023-05-12T13:34:24.513Z,20.50
2023-05-12T13:36:53.802Z,20.60
2023-05-12T13:39:22.899Z,20.60
2023-05-12T13:41:52.721Z,20.40
2023-05-12T13:44:22.076Z,20.70
2023-05-12T13:46:52.638Z,20.70
2023-05-12T13:49:25.995Z,20.50
2023-05-12T13:51:55.819Z,20.80
2023-05-12T13:54:25.295Z,21.20
2023-05-12T13:56:58.854Z,21.00
2023-05-12T13:59:28.720Z,21.10
2023-05-12T14:01:58.032Z,21.10
2023-05-12T14:04:28.943Z,21.20
2023-05-12T14:06:57.843Z,21.10
2023-05-12T14:09:28.584Z,21.10
2023-05-12T14:11:58.342Z,21.20
2023-05-12T14:14:31.360Z,21.20
2023-05-12T14:17:03.360Z,21.60
2023-05-12T14:19:36.031Z,21.20
2023-05-12T14:22:18.760Z,21.30
2023-05-12T14:24:54.085Z,21.20
2023-05-12T14:27:23.209Z,21.40
2023-05-12T14:29:52.416Z,21.40
2023-05-12T14:32:23.227Z,21.50
2023-05-12T14:34:54.400Z,21.50
2023-05-12T14:37:23.592Z,21.70
2023-05-12T14:39:52.945Z,21.60
2023-05-12T14:42:22.559Z,21.60
2023-05-12T14:44:51.551Z,21.50
2023-05-12T14:47:24.209Z,21.50
2023-05-12T14:49:57.074Z,21.80
2023-05-12T14:52:26.283Z,21.20
2023-05-12T14:54:55.696Z,20.80
2023-05-12T14:57:25.033Z,20.90
2023-05-12T14:59:59.138Z,20.70
2023-05-12T15:02:30.240Z,19.50
2023-05-12T15:05:02.800Z,19.60
2023-05-12T15:07:32.304Z,19.50
2023-05-12T15:10:01.240Z,19.30
2023-05-12T15:12:30.390Z,19.10
2023-05-12T15:15:01.330Z,19.10
2023-05-12T15:17:30.920Z,18.80
2023-05-12T15:20:01.591Z,19.30
2023-05-12T15:22:31.778Z,18.50
2023-05-12T15:25:01.030Z,19.00
2023-05-12T15:27:30.336Z,18.70
2023-05-12T15:29:59.184Z,18.80
2023-05-12T15:32:28.742Z,18.70
2023-05-12T15:34:58.583Z,19.20
2023-05-12T15:37:29.235Z,18.80
2023-05-12T15:39:58.848Z,18.90
2023-05-12T15:42:32.958Z,19.50
2023-05-12T15:45:02.717Z,19.30
2023-05-12T15:47:31.577Z,19.20
2023-05-12T15:50:00.821Z,19.30
2023-05-12T15:52:31.304Z,19.40
2023-05-12T15:55:00.652Z,19.50
2023-05-12T15:57:29.440Z,19.40
2023-05-12T16:00:02.556Z,19.00
2023-05-12T16:02:33.448Z,18.90
2023-05-12T16:05:06.584Z,18.80
2023-05-12T16:07:37.354Z,18.80
2023-05-12T16:10:06.857Z,18.70
2023-05-12T16:12:35.793Z,18.60
2023-05-12T16:15:06.593Z,18.50
2023-05-12T16:17:35.466Z,18.50
2023-05-12T16:20:04.621Z,18.30
2023-05-12T16:22:33.716Z,18.30
2023-05-12T16:25:05.241Z,18.40
2023-05-12T16:27:35.889Z,18.10
2023-05-12T16:30:05.014Z,18.10
2023-05-12T16:32:34.038Z,19.10
2023-05-12T16:35:02.982Z,18.10
2023-05-12T16:37:32.759Z,18.10
2023-05-12T16:40:04.025Z,18.40
2023-05-12T16:42:33.304Z,18.10
2023-05-12T16:45:02.188Z,17.60
2023-05-12T16:47:31.752Z,18.30
2023-05-12T16:50:00.656Z,18.30
2023-05-12T16:52:29.423Z,18.30
2023-05-12T16:54:58.475Z,18.30
2023-05-12T16:57:29.952Z,18.30
2023-05-12T16:59:59.199Z,18.90
2023-05-12T17:02:30.037Z,18.30
2023-05-12T17:04:58.877Z,17.80
2023-05-12T17:07:28.087Z,18.30
2023-05-12T17:09:57.281Z,19.40
2023-05-12T17:12:26.489Z,18.30
2023-05-12T17:15:06.705Z,18.40
2023-05-12T17:17:38.726Z,18.30
2023-05-12T17:20:11.996Z,18.20
2023-05-12T17:22:44.505Z,18.40
2023-05-12T17:25:14.200Z,18.00
2023-05-12T17:27:42.978Z,17.90
2023-05-12T17:30:14.820Z,17.90
2023-05-12T17:32:44.031Z,17.70
2023-05-12T17:35:13.783Z,17.70
2023-05-12T17:37:42.852Z,17.70
2023-05-12T17:40:18.860Z,19.10
2023-05-12T17:42:48.384Z,17.80
2023-05-12T17:45:19.306Z,17.90
2023-05-12T17:47:50.714Z,17.50
2023-05-12T17:50:20.102Z,17.50
2023-05-12T17:52:49.226Z,17.40
2023-05-12T17:55:22.354Z,17.60
2023-05-12T17:57:51.675Z,18.40
2023-05-12T18:00:22.463Z,17.30
2023-05-12T18:02:52.869Z,17.40
2023-05-12T18:05:23.783Z,17.20
2023-05-12T18:07:52.939Z,17.20
2023-05-12T18:10:22.039Z,17.30
2023-05-12T18:12:51.584Z,17.10
2023-05-12T18:15:26.125Z,17.30
2023-05-12T18:17:56.305Z,17.00
2023-05-12T18:20:26.712Z,17.00
2023-05-12T18:22:56.892Z,17.10
2023-05-12T18:25:26.267Z,17.10
2023-05-12T18:27:55.093Z,17.50
2023-05-12T18:30:26.460Z,17.00
2023-05-12T18:32:55.777Z,16.40
2023-05-12T18:35:27.391Z,16.70
2023-05-12T18:37:57.541Z,16.70
2023-05-12T18:40:28.592Z,17.60
2023-05-12T18:43:00.060Z,16.80
2023-05-12T18:45:33.432Z,16.70
2023-05-12T18:48:02.816Z,16.70
2023-05-12T18:50:32.529Z,16.60
2023-05-12T18:53:01.600Z,16.10
2023-05-12T18:55:31.314Z,16.50
2023-05-12T18:58:01.394Z,16.50
2023-05-12T19:00:36.431Z,16.50
2023-05-12T19:03:05.613Z,16.50
2023-05-12T19:05:34.946Z,16.50
2023-05-12T19:08:04.112Z,16.30
2023-05-12T19:10:33.126Z,16.30
2023-05-12T19:13:03.032Z,16.20
2023-05-12T19:15:39.424Z,16.20
2023-05-12T19:18:12.240Z,15.00
2023-05-12T19:20:56.795Z,16.20
2023-05-12T19:23:35.951Z,16.20
2023-05-12T19:26:15.268Z,16.10
2023-05-12T19:28:47.951Z,16.00
2023-05-12T19:31:26.705Z,15.30
2023-05-12T19:34:16.755Z,15.80
2023-05-12T19:37:28.429Z,16.00
2023-05-12T19:40:14.162Z,15.90
2023-05-12T19:42:48.627Z,15.90
2023-05-12T19:45:36.219Z,16.30
2023-05-12T19:48:28.893Z,15.90
2023-05-12T19:51:17.217Z,15.80
2023-05-12T19:53:49.318Z,15.70
2023-05-12T19:56:31.396Z,16.10
2023-05-12T19:59:18.904Z,15.90
2023-05-12T20:02:04.502Z,15.60
2023-05-12T20:04:39.984Z,16.10
2023-05-12T20:07:24.355Z,16.20
2023-05-12T20:09:56.475Z,15.40
2023-05-12T20:12:42.005Z,15.50
2023-05-12T20:15:12.768Z,14.80
2023-05-12T20:17:53.925Z,15.40
2023-05-12T20:20:30.359Z,15.30
2023-05-12T20:23:03.122Z,15.20
2023-05-12T20:26:01.958Z,15.20
2023-05-12T20:28:31.161Z,15.30
2023-05-12T20:31:00.244Z,15.20
2023-05-12T20:33:29.756Z,15.40
2023-05-12T20:36:00.627Z,15.20
2023-05-12T20:38:29.543Z,15.40
2023-05-12T20:40:58.791Z,15.10
2023-05-12T20:43:28.878Z,15.10
2023-05-12T20:45:57.958Z,15.00
2023-05-12T20:48:28.463Z,15.00
2023-05-12T20:50:59.435Z,15.30
2023-05-12T20:53:31.649Z,15.10
2023-05-12T20:56:01.933Z,15.10
2023-05-12T20:58:35.255Z,14.90
2023-05-12T21:01:05.212Z,15.10
2023-05-12T21:03:39.147Z,15.00
2023-05-12T21:06:13.737Z,14.80
2023-05-12T21:08:42.766Z,14.90
2023-05-12T21:11:19.494Z,14.70
2023-05-12T21:13:49.121Z,15.60
2023-05-12T21:16:19.668Z,14.60
2023-05-12T21:18:56.391Z,14.80
2023-05-12T21:21:27.428Z,14.50
2023-05-12T21:23:59.270Z,14.60
2023-05-12T21:26:28.962Z,14.40
2023-05-12T21:29:04.303Z,14.40
2023-05-12T21:31:33.828Z,14.40
2023-05-12T21:34:04.463Z,14.30
2023-05-12T21:36:35.813Z,14.30
2023-05-12T21:39:04.680Z,13.60
2023-05-12T21:41:38.677Z,14.60
2023-05-12T21:44:10.389Z,13.80
2023-05-12T21:46:40.620Z,14.10
2023-05-12T21:49:10.920Z,13.90
2023-05-12T21:51:42.560Z,14.00
2023-05-12T21:54:12.479Z,14.10
2023-05-12T21:56:41.892Z,14.00
2023-05-12T21:59:12.954Z,14.00
2023-05-12T22:01:43.230Z,14.00
2023-05-12T22:04:13.054Z,12.90
2023-05-12T22:06:48.393Z,13.90
2023-05-12T22:09:20.753Z,13.90
2023-05-12T22:11:51.934Z,13.80
2023-05-12T22:14:21.365Z,13.80
2023-05-12T22:16:51.817Z,13.90
2023-05-12T22:19:23.019Z,14.00
2023-05-12T22:21:59.860Z,13.90
2023-05-12T22:24:37.513Z,14.10
2023-05-12T22:27:09.571Z,13.90
2023-05-12T22:29:41.306Z,14.10
2023-05-12T22:32:26.539Z,13.90
2023-05-12T22:35:04.871Z,13.70
2023-05-12T22:37:43.890Z,13.70
2023-05-12T22:40:23.046Z,13.70
2023-05-12T22:42:55.761Z,13.70
2023-05-12T22:45:38.793Z,13.70
2023-05-12T22:48:16.279Z,13.80
2023-05-12T22:50:53.447Z,13.90
2023-05-12T22:53:23.780Z,13.90
2023-05-12T22:55:52.915Z,13.50
2023-05-12T22:58:21.815Z,13.30
2023-05-12T23:00:50.512Z,13.50
2023-05-12T23:03:20.477Z,13.50
2023-05-12T23:05:52.493Z,13.50
2023-05-12T23:08:22.719Z,13.50
2023-05-12T23:10:51.395Z,13.60
2023-05-12T23:13:19.969Z,13.50
2023-05-12T23:15:54.714Z,13.60
2023-05-12T23:18:23.501Z,13.60
2023-05-12T23:20:52.351Z,13.60
2023-05-12T23:23:22.495Z,13.70
2023-05-12T23:28:27.367Z,13.60
2023-05-12T23:30:56.044Z,13.60
2023-05-12T23:33:24.891Z,13.50
2023-05-12T23:35:53.638Z,13.50
2023-05-12T23:38:24.062Z,13.40
2023-05-12T23:40:52.689Z,13.40
2023-05-12T23:43:21.342Z,13.40
2023-05-12T23:45:49.994Z,13.40
2023-05-12T23:48:19.267Z,13.40
2023-05-12T23:50:48.001Z,13.40
2023-05-12T23:53:16.661Z,13.40
2023-05-12T23:55:46.813Z,13.40
2023-05-12T23:58:15.996Z,13.30
